SWA1221 KPHX-KSAT
Flight info
| Callsign | SWA1221 |
|---|---|
| Flight time | N/A |
| Altitude | 37000 |
| Route | ECLPS1 PHASE DCT ELP DCT FST DCT MOPPP DNKIN2 |
| Aircraft | B38M/M-SDE1FGHILORVWXY/HB1 |
Departure
| Time | N/A |
|---|---|
| Airport | Phoenix Sky Harbor International Airport (KPHX) |
Arrival
| Time | 2026-05-05 16:44 |
|---|---|
| Airport | San Antonio International Airport (KSAT) |
| Time | Latitude | Longitude | Altitude | Speed | Heading |
|---|---|---|---|---|---|
| 2026-05-05 16:28 | 30.22320 | -100.17884 | 31468 ft | 537 kts | 112° |
| 2026-05-05 16:28 | 30.21192 | -100.13760 | 30216 ft | 540 kts | 111° |
| 2026-05-05 16:28 | 30.20062 | -100.09635 | 28963 ft | 539 kts | 111° |
| 2026-05-05 16:28 | 30.18945 | -100.05565 | 28507 ft | 520 kts | 111° |
| 2026-05-05 16:29 | 30.17860 | -100.01668 | 28159 ft | 498 kts | 114° |
| 2026-05-05 16:29 | 30.16647 | -99.97898 | 27323 ft | 506 kts | 115° |
| 2026-05-05 16:29 | 30.15423 | -99.94071 | 26595 ft | 507 kts | 115° |
| 2026-05-05 16:29 | 30.14216 | -99.90263 | 26047 ft | 504 kts | 115° |
| 2026-05-05 16:30 | 30.13014 | -99.86466 | 25422 ft | 502 kts | 115° |
| 2026-05-05 16:30 | 30.11834 | -99.82739 | 24757 ft | 503 kts | 114° |
| 2026-05-05 16:30 | 30.10635 | -99.78955 | 24111 ft | 502 kts | 114° |
| 2026-05-05 16:30 | 30.09431 | -99.75165 | 23468 ft | 502 kts | 114° |
| 2026-05-05 16:31 | 30.08231 | -99.71385 | 22714 ft | 501 kts | 114° |
| 2026-05-05 16:31 | 30.07031 | -99.67612 | 22058 ft | 498 kts | 114° |
| 2026-05-05 16:31 | 30.05843 | -99.63879 | 21425 ft | 494 kts | 114° |
| 2026-05-05 16:31 | 30.04659 | -99.60166 | 20774 ft | 490 kts | 114° |
| 2026-05-05 16:32 | 30.03490 | -99.56501 | 20167 ft | 486 kts | 114° |
| 2026-05-05 16:32 | 30.02325 | -99.52857 | 19552 ft | 482 kts | 114° |
| 2026-05-05 16:32 | 30.01169 | -99.49242 | 18949 ft | 479 kts | 113° |
| 2026-05-05 16:32 | 30.00018 | -99.45648 | 18338 ft | 474 kts | 113° |
| 2026-05-05 16:33 | 29.98891 | -99.42131 | 17726 ft | 462 kts | 113° |
| 2026-05-05 16:33 | 29.97803 | -99.38741 | 17143 ft | 451 kts | 113° |
| 2026-05-05 16:33 | 29.96727 | -99.35390 | 16630 ft | 441 kts | 113° |
| 2026-05-05 16:33 | 29.95676 | -99.32123 | 16181 ft | 430 kts | 113° |
| 2026-05-05 16:34 | 29.94642 | -99.28910 | 15695 ft | 427 kts | 113° |
| 2026-05-05 16:34 | 29.93610 | -99.25705 | 15198 ft | 425 kts | 113° |
| 2026-05-05 16:34 | 29.92582 | -99.22516 | 14699 ft | 423 kts | 114° |
| 2026-05-05 16:34 | 29.91451 | -99.19380 | 14116 ft | 423 kts | 116° |
| 2026-05-05 16:35 | 29.90309 | -99.16264 | 13697 ft | 420 kts | 115° |
| 2026-05-05 16:35 | 29.89194 | -99.13203 | 13520 ft | 408 kts | 115° |
| 2026-05-05 16:35 | 29.88112 | -99.10229 | 13338 ft | 397 kts | 115° |
| 2026-05-05 16:35 | 29.87057 | -99.07329 | 13142 ft | 388 kts | 115° |
| 2026-05-05 16:36 | 29.86016 | -99.04489 | 12638 ft | 387 kts | 115° |
| 2026-05-05 16:36 | 29.84972 | -99.01655 | 11931 ft | 393 kts | 115° |
| 2026-05-05 16:36 | 29.83897 | -98.98734 | 11236 ft | 398 kts | 115° |
| 2026-05-05 16:36 | 29.82758 | -98.95858 | 10499 ft | 403 kts | 117° |
| 2026-05-05 16:37 | 29.81529 | -98.92937 | 9747 ft | 408 kts | 117° |
| 2026-05-05 16:37 | 29.80297 | -98.89983 | 9084 ft | 408 kts | 117° |
| 2026-05-05 16:37 | 29.79089 | -98.87079 | 8632 ft | 394 kts | 117° |
| 2026-05-05 16:37 | 29.77922 | -98.84271 | 7773 ft | 386 kts | 118° |
| 2026-05-05 16:38 | 29.76770 | -98.81508 | 7044 ft | 376 kts | 118° |
| 2026-05-05 16:38 | 29.75661 | -98.78864 | 6668 ft | 357 kts | 119° |
| 2026-05-05 16:38 | 29.74616 | -98.76373 | 6379 ft | 337 kts | 119° |
| 2026-05-05 16:38 | 29.73622 | -98.74006 | 6122 ft | 320 kts | 120° |
| 2026-05-05 16:39 | 29.72461 | -98.71929 | 5763 ft | 301 kts | 136° |
| 2026-05-05 16:39 | 29.71056 | -98.70209 | 5397 ft | 290 kts | 137° |
| 2026-05-05 16:39 | 29.69716 | -98.68524 | 5063 ft | 281 kts | 136° |
| 2026-05-05 16:39 | 29.68439 | -98.66882 | 4761 ft | 270 kts | 137° |
| 2026-05-05 16:40 | 29.67224 | -98.65311 | 4453 ft | 252 kts | 137° |
| 2026-05-05 16:40 | 29.66126 | -98.63884 | 4249 ft | 227 kts | 137° |
| 2026-05-05 16:40 | 29.65100 | -98.62559 | 3959 ft | 218 kts | 137° |
| 2026-05-05 16:40 | 29.64111 | -98.61280 | 3654 ft | 209 kts | 137° |
| 2026-05-05 16:41 | 29.63173 | -98.60065 | 3384 ft | 197 kts | 137° |
| 2026-05-05 16:41 | 29.62296 | -98.58927 | 3156 ft | 186 kts | 137° |
| 2026-05-05 16:41 | 29.61437 | -98.57817 | 2909 ft | 184 kts | 137° |
| 2026-05-05 16:41 | 29.60620 | -98.56755 | 2679 ft | 171 kts | 137° |
| 2026-05-05 16:42 | 29.59883 | -98.55797 | 2497 ft | 154 kts | 139° |
| 2026-05-05 16:42 | 29.59183 | -98.54895 | 2281 ft | 149 kts | 139° |
| 2026-05-05 16:42 | 29.58490 | -98.54002 | 2086 ft | 151 kts | 138° |
| 2026-05-05 16:42 | 29.57789 | -98.53096 | 1907 ft | 151 kts | 139° |
| 2026-05-05 16:43 | 29.57096 | -98.52199 | 1717 ft | 149 kts | 140° |
| 2026-05-05 16:43 | 29.56425 | -98.51311 | 1476 ft | 148 kts | 137° |
| 2026-05-05 16:43 | 29.55685 | -98.50398 | 1289 ft | 158 kts | 134° |
| 2026-05-05 16:43 | 29.54987 | -98.49459 | 1096 ft | 149 kts | 137° |
| 2026-05-05 16:44 | 29.54318 | -98.48609 | 848 ft | 140 kts | 139° |
| 2026-05-05 16:44 | 29.53744 | -98.47868 | 800 ft | 95 kts | 132° |
| 2026-05-05 16:44 | 29.53405 | -98.47434 | 800 ft | 68 kts | 131° |
| 2026-05-05 16:44 | 29.53186 | -98.47151 | 800 ft | 28 kts | 131° |
| 2026-05-05 16:45 | 29.53075 | -98.47065 | 815 ft | 17 kts | 195° |
| 2026-05-05 16:45 | 29.53008 | -98.47090 | 804 ft | 9 kts | 167° |
| 2026-05-05 16:45 | 29.52953 | -98.47043 | 804 ft | 11 kts | 133° |
| 2026-05-05 16:45 | 29.52897 | -98.46971 | 804 ft | 13 kts | 130° |
| 2026-05-05 16:46 | 29.52831 | -98.46885 | 804 ft | 16 kts | 132° |
| 2026-05-05 16:46 | 29.52758 | -98.46792 | 804 ft | 8 kts | 138° |
| 2026-05-05 16:46 | 29.52714 | -98.46811 | 802 ft | 8 kts | 253° |
| 2026-05-05 16:46 | 29.52692 | -98.46880 | 802 ft | 10 kts | 230° |
| 2026-05-05 16:47 | 29.52646 | -98.46933 | 802 ft | 6 kts | 224° |
| 2026-05-05 16:47 | 29.52639 | -98.46966 | 801 ft | 5 kts | 290° |
| 2026-05-05 16:47 | 29.52660 | -98.46999 | 801 ft | 2 kts | 311° |
| 2026-05-05 16:47 | 29.52674 | -98.47016 | 802 ft | 1 kts | 311° |
| 2026-05-05 16:48 | 29.52676 | -98.47019 | 802 ft | 0 kts | 311° |